sensor_id;sensor_type;location;lat;lon;timestamp;pressure;altitude;pressure_sealevel;temperature;humidity
16100;BME280;8154;50.830;12.082;2023-04-30T00:01:09;99823.19;;;23.09;38.66
16100;BME280;8154;50.830;12.082;2023-04-30T00:03:35;99835.03;;;23.07;38.74
16100;BME280;8154;50.830;12.082;2023-04-30T00:06:02;99832.34;;;23.07;38.80
16100;BME280;8154;50.830;12.082;2023-04-30T00:08:27;99829.06;;;23.05;38.69
16100;BME280;8154;50.830;12.082;2023-04-30T00:10:54;99831.91;;;23.03;38.97
16100;BME280;8154;50.830;12.082;2023-04-30T00:13:21;99836.03;;;23.06;38.86
16100;BME280;8154;50.830;12.082;2023-04-30T00:15:47;99838.06;;;23.04;38.89
16100;BME280;8154;50.830;12.082;2023-04-30T00:18:13;99853.06;;;23.05;38.69
16100;BME280;8154;50.830;12.082;2023-04-30T00:20:40;99849.09;;;23.01;38.67
16100;BME280;8154;50.830;12.082;2023-04-30T00:23:06;99850.56;;;23.03;38.66
16100;BME280;8154;50.830;12.082;2023-04-30T00:25:32;99845.16;;;23.11;38.64
16100;BME280;8154;50.830;12.082;2023-04-30T00:27:58;99854.53;;;23.07;38.78
16100;BME280;8154;50.830;12.082;2023-04-30T00:30:25;99854.88;;;23.04;38.64
16100;BME280;8154;50.830;12.082;2023-04-30T00:32:51;99855.72;;;23.05;38.88
16100;BME280;8154;50.830;12.082;2023-04-30T00:35:17;99851.38;;;23.04;38.54
16100;BME280;8154;50.830;12.082;2023-04-30T00:37:43;99858.75;;;23.02;38.93
16100;BME280;8154;50.830;12.082;2023-04-30T00:40:10;99860.41;;;23.03;38.67
16100;BME280;8154;50.830;12.082;2023-04-30T00:42:36;99865.72;;;23.03;38.71
16100;BME280;8154;50.830;12.082;2023-04-30T00:45:21;99866.56;;;23.03;38.85
16100;BME280;8154;50.830;12.082;2023-04-30T00:47:47;99867.75;;;23.01;38.78
16100;BME280;8154;50.830;12.082;2023-04-30T00:50:14;99876.59;;;23.01;39.04
16100;BME280;8154;50.830;12.082;2023-04-30T00:53:00;99879.34;;;23.08;38.59
16100;BME280;8154;50.830;12.082;2023-04-30T00:55:26;99880.34;;;23.07;38.56
16100;BME280;8154;50.830;12.082;2023-04-30T00:57:53;99889.66;;;23.11;38.73
16100;BME280;8154;50.830;12.082;2023-04-30T01:00:20;99884.31;;;23.11;38.38
16100;BME280;8154;50.830;12.082;2023-04-30T01:02:47;99896.81;;;23.10;38.52
16100;BME280;8154;50.830;12.082;2023-04-30T01:05:13;99898.19;;;23.06;38.61
16100;BME280;8154;50.830;12.082;2023-04-30T01:07:39;99901.06;;;23.05;38.74
16100;BME280;8154;50.830;12.082;2023-04-30T01:10:14;99904.69;;;23.04;38.72
16100;BME280;8154;50.830;12.082;2023-04-30T01:13:07;99907.72;;;23.01;38.77
16100;BME280;8154;50.830;12.082;2023-04-30T01:15:42;99916.56;;;23.01;38.56
16100;BME280;8154;50.830;12.082;2023-04-30T01:18:16;99915.72;;;23.01;38.76
16100;BME280;8154;50.830;12.082;2023-04-30T01:20:48;99916.75;;;23.00;38.74
16100;BME280;8154;50.830;12.082;2023-04-30T01:29:02;99931.72;;;23.01;38.70
16100;BME280;8154;50.830;12.082;2023-04-30T02:32:50;99985.94;;;22.93;38.73
16100;BME280;8154;50.830;12.082;2023-04-30T02:35:16;99993.28;;;22.91;38.80
16100;BME280;8154;50.830;12.082;2023-04-30T02:37:42;99994.97;;;22.92;38.50
16100;BME280;8154;50.830;12.082;2023-04-30T02:40:09;99992.47;;;22.91;38.48
16100;BME280;8154;50.830;12.082;2023-04-30T02:42:35;99991.75;;;22.97;38.49
16100;BME280;8154;50.830;12.082;2023-04-30T02:45:01;99998.72;;;22.98;38.39
16100;BME280;8154;50.830;12.082;2023-04-30T02:47:28;99995.72;;;23.01;38.62
16100;BME280;8154;50.830;12.082;2023-04-30T02:49:54;99996.91;;;22.98;38.43
16100;BME280;8154;50.830;12.082;2023-04-30T02:52:21;99994.78;;;22.94;38.83
16100;BME280;8154;50.830;12.082;2023-04-30T02:54:48;99999.41;;;23.00;38.68
16100;BME280;8154;50.830;12.082;2023-04-30T02:57:14;99995.88;;;22.99;38.41
16100;BME280;8154;50.830;12.082;2023-04-30T02:59:39;99998.63;;;22.91;38.51
16100;BME280;8154;50.830;12.082;2023-04-30T03:02:11;100003.94;;;22.91;38.44
16100;BME280;8154;50.830;12.082;2023-04-30T03:04:37;100001.09;;;22.93;38.69
16100;BME280;8154;50.830;12.082;2023-04-30T03:07:03;100009.09;;;22.93;38.44
16100;BME280;8154;50.830;12.082;2023-04-30T03:09:31;100013.44;;;22.94;38.56
16100;BME280;8154;50.830;12.082;2023-04-30T03:11:57;100018.09;;;22.92;38.63
16100;BME280;8154;50.830;12.082;2023-04-30T03:14:24;100021.97;;;22.89;38.70
16100;BME280;8154;50.830;12.082;2023-04-30T03:16:50;100025.25;;;22.91;38.51
16100;BME280;8154;50.830;12.082;2023-04-30T03:19:16;100016.78;;;22.96;38.64
16100;BME280;8154;50.830;12.082;2023-04-30T03:21:42;100022.44;;;22.93;38.63
16100;BME280;8154;50.830;12.082;2023-04-30T03:24:09;100021.78;;;22.91;38.48
16100;BME280;8154;50.830;12.082;2023-04-30T03:26:35;100027.75;;;22.93;38.57
16100;BME280;8154;50.830;12.082;2023-04-30T03:29:01;100034.09;;;22.92;38.51
16100;BME280;8154;50.830;12.082;2023-04-30T03:31:27;100031.44;;;22.92;38.48
16100;BME280;8154;50.830;12.082;2023-04-30T03:33:53;100033.09;;;22.93;38.60
16100;BME280;8154;50.830;12.082;2023-04-30T03:36:19;100027.75;;;22.93;38.68
16100;BME280;8154;50.830;12.082;2023-04-30T03:38:45;100027.13;;;22.91;38.50
16100;BME280;8154;50.830;12.082;2023-04-30T03:41:11;100030.28;;;22.94;38.36
16100;BME280;8154;50.830;12.082;2023-04-30T03:43:37;100032.47;;;22.91;38.62
16100;BME280;8154;50.830;12.082;2023-04-30T03:46:04;100025.44;;;22.90;38.55
16100;BME280;8154;50.830;12.082;2023-04-30T03:48:30;100037.44;;;22.94;38.47
16100;BME280;8154;50.830;12.082;2023-04-30T03:50:56;100041.38;;;22.98;38.44
16100;BME280;8154;50.830;12.082;2023-04-30T03:53:24;100039.06;;;22.95;38.38
16100;BME280;8154;50.830;12.082;2023-04-30T03:55:54;100043.75;;;22.93;38.43
16100;BME280;8154;50.830;12.082;2023-04-30T03:58:20;100044.22;;;22.96;38.55
16100;BME280;8154;50.830;12.082;2023-04-30T04:00:46;100047.06;;;22.95;38.55
16100;BME280;8154;50.830;12.082;2023-04-30T04:03:14;100042.59;;;22.95;38.29
16100;BME280;8154;50.830;12.082;2023-04-30T04:05:41;100051.41;;;22.96;38.54
16100;BME280;8154;50.830;12.082;2023-04-30T04:08:08;100045.25;;;22.95;38.33
16100;BME280;8154;50.830;12.082;2023-04-30T04:10:36;100050.22;;;22.98;38.37
16100;BME280;8154;50.830;12.082;2023-04-30T04:13:05;100063.44;;;22.92;38.51
16100;BME280;8154;50.830;12.082;2023-04-30T04:15:32;100062.25;;;22.94;38.34
16100;BME280;8154;50.830;12.082;2023-04-30T04:17:58;100072.09;;;22.94;38.28
16100;BME280;8154;50.830;12.082;2023-04-30T04:20:24;100067.09;;;22.91;38.24
16100;BME280;8154;50.830;12.082;2023-04-30T04:22:50;100075.91;;;22.91;38.53
16100;BME280;8154;50.830;12.082;2023-04-30T04:25:16;100074.63;;;22.87;38.49
16100;BME280;8154;50.830;12.082;2023-04-30T04:27:43;100078.41;;;22.93;38.46
16100;BME280;8154;50.830;12.082;2023-04-30T04:30:15;100079.06;;;22.95;38.15
16100;BME280;8154;50.830;12.082;2023-04-30T04:32:41;100081.06;;;22.93;38.22
16100;BME280;8154;50.830;12.082;2023-04-30T04:35:13;100096.97;;;22.86;38.45
16100;BME280;8154;50.830;12.082;2023-04-30T04:37:39;100099.28;;;22.89;38.58
16100;BME280;8154;50.830;12.082;2023-04-30T04:40:06;100097.41;;;22.90;38.31
16100;BME280;8154;50.830;12.082;2023-04-30T04:42:33;100099.91;;;22.91;38.53
16100;BME280;8154;50.830;12.082;2023-04-30T04:44:59;100105.06;;;22.93;38.37
16100;BME280;8154;50.830;12.082;2023-04-30T04:47:25;100103.41;;;22.92;38.48
16100;BME280;8154;50.830;12.082;2023-04-30T04:49:53;100105.41;;;22.90;38.69
16100;BME280;8154;50.830;12.082;2023-04-30T04:52:19;100110.75;;;22.90;38.49
16100;BME280;8154;50.830;12.082;2023-04-30T04:54:45;100116.38;;;22.95;38.19
16100;BME280;8154;50.830;12.082;2023-04-30T04:57:12;100120.56;;;22.97;38.18
16100;BME280;8154;50.830;12.082;2023-04-30T04:59:38;100118.66;;;23.06;38.25
16100;BME280;8154;50.830;12.082;2023-04-30T05:02:04;100121.97;;;23.08;38.09
16100;BME280;8154;50.830;12.082;2023-04-30T05:04:30;100118.81;;;23.04;38.02
16100;BME280;8154;50.830;12.082;2023-04-30T05:06:56;100118.16;;;23.02;38.27
16100;BME280;8154;50.830;12.082;2023-04-30T05:09:22;100128.84;;;23.02;38.18
16100;BME280;8154;50.830;12.082;2023-04-30T05:11:48;100128.66;;;23.04;38.17
16100;BME280;8154;50.830;12.082;2023-04-30T05:14:14;100121.00;;;23.01;38.23
16100;BME280;8154;50.830;12.082;2023-04-30T05:16:40;100124.34;;;23.03;38.05
16100;BME280;8154;50.830;12.082;2023-04-30T05:19:06;100124.50;;;23.01;38.17
16100;BME280;8154;50.830;12.082;2023-04-30T05:21:34;100123.84;;;22.99;38.16
16100;BME280;8154;50.830;12.082;2023-04-30T05:24:01;100128.03;;;23.02;38.34
16100;BME280;8154;50.830;12.082;2023-04-30T05:26:28;100129.50;;;23.04;38.15
16100;BME280;8154;50.830;12.082;2023-04-30T05:28:54;100121.84;;;23.01;38.03
16100;BME280;8154;50.830;12.082;2023-04-30T08:33:10;100160.28;;;23.07;38.72
16100;BME280;8154;50.830;12.082;2023-04-30T08:35:36;100161.19;;;22.99;38.75
16100;BME280;8154;50.830;12.082;2023-04-30T08:38:02;100157.34;;;23.02;39.02
16100;BME280;8154;50.830;12.082;2023-04-30T08:40:29;100161.66;;;23.03;38.84
16100;BME280;8154;50.830;12.082;2023-04-30T08:43:04;100166.63;;;23.06;38.97
16100;BME280;8154;50.830;12.082;2023-04-30T08:45:32;100161.13;;;23.07;38.87
16100;BME280;8154;50.830;12.082;2023-04-30T08:48:00;100166.28;;;23.09;38.91
16100;BME280;8154;50.830;12.082;2023-04-30T08:50:27;100168.97;;;23.09;38.88
16100;BME280;8154;50.830;12.082;2023-04-30T08:52:53;100167.94;;;23.10;38.69
16100;BME280;8154;50.830;12.082;2023-04-30T08:55:20;100155.28;;;23.12;38.80
16100;BME280;8154;50.830;12.082;2023-04-30T08:57:47;100162.28;;;23.13;38.76
16100;BME280;8154;50.830;12.082;2023-04-30T09:00:13;100156.28;;;23.11;38.83
16100;BME280;8154;50.830;12.082;2023-04-30T09:02:40;100153.63;;;23.11;38.85
16100;BME280;8154;50.830;12.082;2023-04-30T09:05:26;100154.09;;;23.14;38.84
16100;BME280;8154;50.830;12.082;2023-04-30T09:07:52;100160.72;;;23.18;38.60
16100;BME280;8154;50.830;12.082;2023-04-30T09:10:20;100163.56;;;23.17;38.87
16100;BME280;8154;50.830;12.082;2023-04-30T09:13:06;100158.91;;;23.19;38.74
16100;BME280;8154;50.830;12.082;2023-04-30T09:15:34;100155.22;;;23.20;38.99
16100;BME280;8154;50.830;12.082;2023-04-30T09:18:37;100158.72;;;23.20;38.82
16100;BME280;8154;50.830;12.082;2023-04-30T09:21:03;100156.25;;;23.19;38.82
16100;BME280;8154;50.830;12.082;2023-04-30T09:23:31;100150.91;;;23.19;38.85
16100;BME280;8154;50.830;12.082;2023-04-30T09:25:57;100160.38;;;23.21;38.88
16100;BME280;8154;50.830;12.082;2023-04-30T09:28:23;100160.38;;;23.21;38.93
16100;BME280;8154;50.830;12.082;2023-04-30T09:30:52;100164.50;;;23.24;38.89
16100;BME280;8154;50.830;12.082;2023-04-30T10:32:40;100104.00;;;23.32;39.00
16100;BME280;8154;50.830;12.082;2023-04-30T10:35:21;100101.50;;;23.31;38.72
16100;BME280;8154;50.830;12.082;2023-04-30T10:38:09;100099.50;;;23.33;39.01
16100;BME280;8154;50.830;12.082;2023-04-30T10:40:39;100100.13;;;23.35;38.77
16100;BME280;8154;50.830;12.082;2023-04-30T10:43:12;100093.16;;;23.34;38.72
16100;BME280;8154;50.830;12.082;2023-04-30T10:45:50;100091.31;;;23.34;38.64
16100;BME280;8154;50.830;12.082;2023-04-30T10:48:16;100097.47;;;23.35;38.62
16100;BME280;8154;50.830;12.082;2023-04-30T10:50:51;100091.31;;;23.34;38.86
16100;BME280;8154;50.830;12.082;2023-04-30T10:53:19;100080.66;;;23.34;38.71
16100;BME280;8154;50.830;12.082;2023-04-30T10:55:47;100085.63;;;23.37;38.63
16100;BME280;8154;50.830;12.082;2023-04-30T10:58:26;100076.97;;;23.35;38.68
16100;BME280;8154;50.830;12.082;2023-04-30T11:01:15;100074.13;;;23.37;38.89
16100;BME280;8154;50.830;12.082;2023-04-30T11:04:08;100071.91;;;23.40;38.75
16100;BME280;8154;50.830;12.082;2023-04-30T11:09:19;100068.78;;;23.37;38.84
16100;BME280;8154;50.830;12.082;2023-04-30T11:12:04;100068.78;;;23.37;38.65
16100;BME280;8154;50.830;12.082;2023-04-30T11:14:39;100058.75;;;23.39;38.63
16100;BME280;8154;50.830;12.082;2023-04-30T11:17:06;100062.72;;;23.43;38.73
16100;BME280;8154;50.830;12.082;2023-04-30T11:19:32;100061.44;;;23.39;38.70
16100;BME280;8154;50.830;12.082;2023-04-30T11:24:51;100052.03;;;23.43;38.45
16100;BME280;8154;50.830;12.082;2023-04-30T11:27:26;100058.41;;;23.42;38.58
16100;BME280;8154;50.830;12.082;2023-04-30T11:29:53;100055.72;;;23.42;38.49
16100;BME280;8154;50.830;12.082;2023-04-30T11:32:45;100049.38;;;23.43;38.34
16100;BME280;8154;50.830;12.082;2023-04-30T11:35:16;100046.72;;;23.43;38.62
16100;BME280;8154;50.830;12.082;2023-04-30T11:37:43;100052.03;;;23.43;38.60
16100;BME280;8154;50.830;12.082;2023-04-30T11:40:13;100049.75;;;23.40;38.51
16100;BME280;8154;50.830;12.082;2023-04-30T11:42:42;100049.91;;;23.38;38.51
16100;BME280;8154;50.830;12.082;2023-04-30T11:45:14;100044.22;;;23.41;38.62
16100;BME280;8154;50.830;12.082;2023-04-30T11:47:50;100052.03;;;23.43;38.36
16100;BME280;8154;50.830;12.082;2023-04-30T11:50:21;100041.84;;;23.46;38.27
16100;BME280;8154;50.830;12.082;2023-04-30T11:52:53;100046.34;;;23.46;38.26
16100;BME280;8154;50.830;12.082;2023-04-30T11:55:21;100044.03;;;23.43;38.40
16100;BME280;8154;50.830;12.082;2023-04-30T11:57:51;100042.84;;;23.45;38.64
16100;BME280;8154;50.830;12.082;2023-04-30T12:00:25;100041.00;;;23.46;38.20
16100;BME280;8154;50.830;12.082;2023-04-30T12:02:53;100033.56;;;23.41;38.65
16100;BME280;8154;50.830;12.082;2023-04-30T12:05:43;100035.03;;;23.44;38.36
16100;BME280;8154;50.830;12.082;2023-04-30T12:08:11;100030.34;;;23.46;38.42
16100;BME280;8154;50.830;12.082;2023-04-30T12:10:37;100025.66;;;23.48;38.50
16100;BME280;8154;50.830;12.082;2023-04-30T12:13:04;100021.50;;;23.45;38.21
16100;BME280;8154;50.830;12.082;2023-04-30T12:15:30;100027.38;;;23.41;38.39
16100;BME280;8154;50.830;12.082;2023-04-30T12:17:58;100022.69;;;23.43;38.40
16100;BME280;8154;50.830;12.082;2023-04-30T12:20:27;100015.97;;;23.47;38.21
16100;BME280;8154;50.830;12.082;2023-04-30T12:22:58;100017.66;;;23.48;38.48
16100;BME280;8154;50.830;12.082;2023-04-30T12:25:28;100014.34;;;23.46;38.23
16100;BME280;8154;50.830;12.082;2023-04-30T12:27:57;100019.84;;;23.44;38.32
16100;BME280;8154;50.830;12.082;2023-04-30T12:30:25;100005.97;;;23.49;38.14
16100;BME280;8154;50.830;12.082;2023-04-30T12:33:16;100005.59;;;23.52;38.41
16100;BME280;8154;50.830;12.082;2023-04-30T12:35:43;99997.97;;;23.49;38.25
16100;BME280;8154;50.830;12.082;2023-04-30T12:38:10;100012.31;;;23.48;38.18
16100;BME280;8154;50.830;12.082;2023-04-30T12:40:36;100005.16;;;23.48;38.36
16100;BME280;8154;50.830;12.082;2023-04-30T12:45:49;100003.00;;;23.44;38.34
16100;BME280;8154;50.830;12.082;2023-04-30T12:48:20;100005.31;;;23.47;38.37
16100;BME280;8154;50.830;12.082;2023-04-30T12:53:17;99996.13;;;23.49;38.34
16100;BME280;8154;50.830;12.082;2023-04-30T12:56:16;99997.31;;;23.47;38.48
16100;BME280;8154;50.830;12.082;2023-04-30T12:58:46;99998.63;;;23.51;38.25
16100;BME280;8154;50.830;12.082;2023-04-30T13:01:16;100003.28;;;23.49;38.18
16100;BME280;8154;50.830;12.082;2023-04-30T13:03:42;99995.28;;;23.49;38.12
16100;BME280;8154;50.830;12.082;2023-04-30T13:06:09;99989.66;;;23.44;38.25
16100;BME280;8154;50.830;12.082;2023-04-30T13:08:35;99984.81;;;23.47;38.20
16100;BME280;8154;50.830;12.082;2023-04-30T13:11:02;99984.44;;;23.50;38.24
16100;BME280;8154;50.830;12.082;2023-04-30T13:13:29;99986.13;;;23.51;38.16
16100;BME280;8154;50.830;12.082;2023-04-30T13:15:55;99981.16;;;23.48;38.37
16100;BME280;8154;50.830;12.082;2023-04-30T13:18:22;99977.63;;;23.48;38.10
16100;BME280;8154;50.830;12.082;2023-04-30T13:20:48;99977.28;;;23.51;38.00
16100;BME280;8154;50.830;12.082;2023-04-30T13:23:14;99977.28;;;23.51;38.27
16100;BME280;8154;50.830;12.082;2023-04-30T13:25:44;99972.50;;;23.46;38.10
16100;BME280;8154;50.830;12.082;2023-04-30T13:28:12;99974.59;;;23.51;38.21
16100;BME280;8154;50.830;12.082;2023-04-30T13:30:42;99964.78;;;23.51;37.98
16100;BME280;8154;50.830;12.082;2023-04-30T13:33:11;99964.31;;;23.48;38.45
16100;BME280;8154;50.830;12.082;2023-04-30T13:35:38;99964.31;;;23.48;38.04
16100;BME280;8154;50.830;12.082;2023-04-30T13:38:04;99967.81;;;23.48;38.18
16100;BME280;8154;50.830;12.082;2023-04-30T13:40:32;99967.63;;;23.50;37.88
16100;BME280;8154;50.830;12.082;2023-04-30T13:42:58;99970.91;;;23.52;38.09
16100;BME280;8154;50.830;12.082;2023-04-30T13:45:24;99965.13;;;23.48;37.95
16100;BME280;8154;50.830;12.082;2023-04-30T13:47:51;99960.59;;;23.49;38.17
16100;BME280;8154;50.830;12.082;2023-04-30T13:50:18;99969.25;;;23.51;38.02
16100;BME280;8154;50.830;12.082;2023-04-30T13:52:44;99962.28;;;23.50;37.72
16100;BME280;8154;50.830;12.082;2023-04-30T13:55:11;99958.31;;;23.46;37.21
16100;BME280;8154;50.830;12.082;2023-04-30T13:57:37;99959.34;;;23.45;36.87
16100;BME280;8154;50.830;12.082;2023-04-30T14:00:05;99958.50;;;23.44;36.28
16100;BME280;8154;50.830;12.082;2023-04-30T14:02:33;99961.88;;;23.38;35.62
16100;BME280;8154;50.830;12.082;2023-04-30T14:04:59;99966.56;;;23.36;35.46
16100;BME280;8154;50.830;12.082;2023-04-30T14:38:57;99934.25;;;23.17;32.09
16100;BME280;8154;50.830;12.082;2023-04-30T14:41:24;99931.59;;;23.17;32.05
16100;BME280;8154;50.830;12.082;2023-04-30T14:44:15;99934.25;;;23.17;31.86
16100;BME280;8154;50.830;12.082;2023-04-30T14:46:42;99943.88;;;23.18;31.59
16100;BME280;8154;50.830;12.082;2023-04-30T14:49:08;99933.59;;;23.15;31.45
16100;BME280;8154;50.830;12.082;2023-04-30T14:51:57;99929.94;;;23.16;31.77
16100;BME280;8154;50.830;12.082;2023-04-30T14:54:23;99923.75;;;23.15;31.71
16100;BME280;8154;50.830;12.082;2023-04-30T16:56:50;99866.84;;;23.08;32.88
16100;BME280;8154;50.830;12.082;2023-04-30T16:59:16;99876.03;;;23.06;32.78
16100;BME280;8154;50.830;12.082;2023-04-30T17:01:43;99864.53;;;23.05;33.02
16100;BME280;8154;50.830;12.082;2023-04-30T17:04:10;99860.69;;;23.08;32.77
16100;BME280;8154;50.830;12.082;2023-04-30T17:06:37;99856.81;;;23.10;32.99
16100;BME280;8154;50.830;12.082;2023-04-30T17:09:04;99851.31;;;23.12;33.05
16100;BME280;8154;50.830;12.082;2023-04-30T17:11:32;99857.66;;;23.11;32.96
16100;BME280;8154;50.830;12.082;2023-04-30T17:13:58;99852.31;;;23.11;32.99
16100;BME280;8154;50.830;12.082;2023-04-30T17:16:25;99852.31;;;23.11;32.94
16100;BME280;8154;50.830;12.082;2023-04-30T17:18:51;99848.44;;;23.13;33.08
16100;BME280;8154;50.830;12.082;2023-04-30T17:21:17;99852.97;;;23.13;32.93
16100;BME280;8154;50.830;12.082;2023-04-30T17:23:43;99852.59;;;23.16;33.06
16100;BME280;8154;50.830;12.082;2023-04-30T17:26:11;99857.09;;;23.15;32.97
16100;BME280;8154;50.830;12.082;2023-04-30T17:28:38;99859.97;;;23.14;33.25
16100;BME280;8154;50.830;12.082;2023-04-30T17:31:04;99857.28;;;23.14;33.02
16100;BME280;8154;50.830;12.082;2023-04-30T17:33:33;99858.13;;;23.14;33.16
16100;BME280;8154;50.830;12.082;2023-04-30T17:35:59;99864.25;;;23.15;32.92
16100;BME280;8154;50.830;12.082;2023-04-30T17:38:25;99861.59;;;23.15;33.20
16100;BME280;8154;50.830;12.082;2023-04-30T17:40:51;99860.78;;;23.14;33.15
16100;BME280;8154;50.830;12.082;2023-04-30T17:43:18;99856.09;;;23.16;33.10
16100;BME280;8154;50.830;12.082;2023-04-30T17:45:45;99856.63;;;23.12;33.10
16100;BME280;8154;50.830;12.082;2023-04-30T17:48:12;99858.31;;;23.13;33.23
16100;BME280;8154;50.830;12.082;2023-04-30T17:50:41;99854.63;;;23.14;33.27
16100;BME280;8154;50.830;12.082;2023-04-30T17:53:07;99863.28;;;23.16;33.34
16100;BME280;8154;50.830;12.082;2023-04-30T17:55:33;99856.91;;;23.17;33.29
16100;BME280;8154;50.830;12.082;2023-04-30T17:58:00;99854.25;;;23.17;33.18
16100;BME280;8154;50.830;12.082;2023-04-30T18:00:29;99850.94;;;23.15;33.25
16100;BME280;8154;50.830;12.082;2023-04-30T18:02:56;99853.78;;;23.13;33.18
16100;BME280;8154;50.830;12.082;2023-04-30T18:05:22;99856.25;;;23.15;32.99
16100;BME280;8154;50.830;12.082;2023-04-30T18:07:48;99856.09;;;23.16;33.11
16100;BME280;8154;50.830;12.082;2023-04-30T18:10:15;99851.78;;;23.15;33.11
16100;BME280;8154;50.830;12.082;2023-04-30T18:12:44;99852.59;;;23.16;33.09
16100;BME280;8154;50.830;12.082;2023-04-30T18:15:10;99847.09;;;23.17;33.29
16100;BME280;8154;50.830;12.082;2023-04-30T18:17:41;99845.59;;;23.15;33.08
16100;BME280;8154;50.830;12.082;2023-04-30T18:20:08;99848.25;;;23.15;33.21
16100;BME280;8154;50.830;12.082;2023-04-30T18:22:37;99845.22;;;23.18;33.34
16100;BME280;8154;50.830;12.082;2023-04-30T18:25:11;99845.41;;;23.16;33.20
16100;BME280;8154;50.830;12.082;2023-04-30T18:27:38;99845.22;;;23.18;33.40
16100;BME280;8154;50.830;12.082;2023-04-30T18:30:10;99843.59;;;23.17;33.37
16100;BME280;8154;50.830;12.082;2023-04-30T18:32:38;99847.28;;;23.16;33.52
16100;BME280;8154;50.830;12.082;2023-04-30T18:35:06;99845.22;;;23.18;33.22
16100;BME280;8154;50.830;12.082;2023-04-30T18:37:32;99851.41;;;23.18;33.64
16100;BME280;8154;50.830;12.082;2023-04-30T18:40:00;99854.06;;;23.18;33.45
16100;BME280;8154;50.830;12.082;2023-04-30T18:42:27;99854.44;;;23.15;33.32
16100;BME280;8154;50.830;12.082;2023-04-30T18:44:55;99856.25;;;23.15;33.46
16100;BME280;8154;50.830;12.082;2023-04-30T18:47:23;99859.13;;;23.13;33.55
16100;BME280;8154;50.830;12.082;2023-04-30T18:49:49;99861.16;;;23.11;33.73
16100;BME280;8154;50.830;12.082;2023-04-30T18:52:16;99863.00;;;23.11;33.64
16100;BME280;8154;50.830;12.082;2023-04-30T18:54:42;99858.31;;;23.13;33.51
16100;BME280;8154;50.830;12.082;2023-04-30T18:57:08;99863.00;;;23.11;33.56
16100;BME280;8154;50.830;12.082;2023-04-30T18:59:38;99871.00;;;23.11;33.56
16100;BME280;8154;50.830;12.082;2023-04-30T19:02:06;99866.50;;;23.11;33.79
16100;BME280;8154;50.830;12.082;2023-04-30T19:04:32;99871.00;;;23.11;33.78
16100;BME280;8154;50.830;12.082;2023-04-30T19:06:59;99876.13;;;23.12;33.60
16100;BME280;8154;50.830;12.082;2023-04-30T19:09:32;99877.97;;;23.12;33.66
16100;BME280;8154;50.830;12.082;2023-04-30T19:12:00;99877.41;;;23.16;33.53
16100;BME280;8154;50.830;12.082;2023-04-30T19:14:27;99885.41;;;23.16;33.74
16100;BME280;8154;50.830;12.082;2023-04-30T19:16:55;99879.72;;;23.19;33.52
16100;BME280;8154;50.830;12.082;2023-04-30T19:19:21;99886.72;;;23.20;33.46
16100;BME280;8154;50.830;12.082;2023-04-30T19:21:47;99885.88;;;23.20;33.47
16100;BME280;8154;50.830;12.082;2023-04-30T19:24:15;99892.88;;;23.21;33.54
16100;BME280;8154;50.830;12.082;2023-04-30T19:26:41;99899.78;;;23.15;33.61
16100;BME280;8154;50.830;12.082;2023-04-30T19:29:08;99906.31;;;23.13;33.85
16100;BME280;8154;50.830;12.082;2023-04-30T19:31:35;99900.31;;;23.11;33.72
16100;BME280;8154;50.830;12.082;2023-04-30T19:34:01;99904.63;;;23.12;33.83
16100;BME280;8154;50.830;12.082;2023-04-30T19:36:28;99896.63;;;23.12;33.73
16100;BME280;8154;50.830;12.082;2023-04-30T19:38:55;99892.13;;;23.12;33.91
16100;BME280;8154;50.830;12.082;2023-04-30T19:41:22;99894.44;;;23.15;33.78
16100;BME280;8154;50.830;12.082;2023-04-30T19:43:57;99889.47;;;23.12;33.95
16100;BME280;8154;50.830;12.082;2023-04-30T19:46:23;99890.13;;;23.14;33.89
16100;BME280;8154;50.830;12.082;2023-04-30T19:48:53;99892.59;;;23.16;33.75
16100;BME280;8154;50.830;12.082;2023-04-30T19:51:32;99886.06;;;23.18;33.99
16100;BME280;8154;50.830;12.082;2023-04-30T19:53:58;99888.56;;;23.20;33.73
16100;BME280;8154;50.830;12.082;2023-04-30T19:56:24;99887.91;;;23.18;33.95
16100;BME280;8154;50.830;12.082;2023-04-30T19:58:51;99882.75;;;23.16;33.93
16100;BME280;8154;50.830;12.082;2023-04-30T20:01:17;99878.25;;;23.17;33.80
16100;BME280;8154;50.830;12.082;2023-04-30T20:03:46;99876.84;;;23.21;33.65
16100;BME280;8154;50.830;12.082;2023-04-30T20:06:13;99878.53;;;23.22;33.78
16100;BME280;8154;50.830;12.082;2023-04-30T20:08:39;99878.03;;;23.26;33.70
16100;BME280;8154;50.830;12.082;2023-04-30T20:11:06;99873.31;;;23.28;33.69
16100;BME280;8154;50.830;12.082;2023-04-30T20:13:32;99870.63;;;23.28;33.82
16100;BME280;8154;50.830;12.082;2023-04-30T20:15:59;99868.44;;;23.32;33.62
16100;BME280;8154;50.830;12.082;2023-04-30T20:18:26;99861.47;;;23.31;33.83
16100;BME280;8154;50.830;12.082;2023-04-30T20:20:52;99869.28;;;23.32;33.75
16100;BME280;8154;50.830;12.082;2023-04-30T20:23:22;99862.63;;;23.28;33.70
16100;BME280;8154;50.830;12.082;2023-04-30T20:25:49;99859.88;;;23.22;33.91
16100;BME280;8154;50.830;12.082;2023-04-30T20:28:17;99854.53;;;23.22;33.91
16100;BME280;8154;50.830;12.082;2023-04-30T20:30:44;99861.69;;;23.21;34.00
16100;BME280;8154;50.830;12.082;2023-04-30T20:33:13;99856.00;;;23.24;34.04
16100;BME280;8154;50.830;12.082;2023-04-30T20:35:41;99859.16;;;23.28;34.01
16100;BME280;8154;50.830;12.082;2023-04-30T20:38:11;99860.06;;;23.35;33.76
16100;BME280;8154;50.830;12.082;2023-04-30T20:40:38;99855.09;;;23.32;33.67
16100;BME280;8154;50.830;12.082;2023-04-30T20:43:08;99855.66;;;23.27;33.87
16100;BME280;8154;50.830;12.082;2023-04-30T20:45:35;99850.00;;;23.22;34.08
16100;BME280;8154;50.830;12.082;2023-04-30T20:48:02;99864.56;;;23.20;34.04
16100;BME280;8154;50.830;12.082;2023-04-30T20:50:29;99861.19;;;23.26;33.95
16100;BME280;8154;50.830;12.082;2023-04-30T20:52:55;99858.50;;;23.26;33.83